Time;durP1;ratioP1;P1;durP2;ratioP2;P2;SDS_P1;SDS_P2;PMS_P1;PMS_P2;Temp;Humidity;BMP_temperature;BMP_pressure;BME280_temperature;BME280_humidity;BME280_pressure;Samples;Min_cycle;Max_cycle;Signal;HPM_P1;HPM_P2
2023/04/30 00:00:10;;;;;;;8.77;3.75;;;13.30;95.50;;;;;;6183864;23;20048;-94
2023/04/30 00:02:35;;;;;;;8.75;3.95;;;13.30;95.50;;;;;;6159771;23;20005;-94
2023/04/30 00:05:01;;;;;;;8.23;3.10;;;13.30;95.50;;;;;;6183339;23;20005;-93
2023/04/30 00:07:27;;;;;;;6.00;3.95;;;13.30;95.50;;;;;;6184344;23;20375;-94
2023/04/30 00:09:53;;;;;;;7.28;4.63;;;13.30;95.50;;;;;;6183991;23;20016;-94
2023/04/30 00:12:18;;;;;;;5.55;4.03;;;13.30;95.90;;;;;;6184183;23;20419;-94
2023/04/30 00:14:44;;;;;;;7.82;4.38;;;13.20;95.40;;;;;;6184214;23;20032;-95
2023/04/30 00:17:10;;;;;;;7.22;4.32;;;13.20;95.50;;;;;;6183759;23;20517;-95
2023/04/30 00:19:35;;;;;;;4.72;3.70;;;13.20;95.40;;;;;;6183961;23;20008;-93
2023/04/30 00:22:01;;;;;;;5.95;3.20;;;13.20;95.50;;;;;;6184657;23;20044;-93
2023/04/30 00:24:27;;;;;;;5.15;3.28;;;13.20;95.50;;;;;;6184717;23;20372;-94
2023/04/30 00:26:53;;;;;;;7.63;2.95;;;13.20;95.50;;;;;;6184040;23;20076;-95
2023/04/30 00:29:18;;;;;;;4.60;3.35;;;13.20;95.50;;;;;;6184258;23;20033;-93
2023/04/30 00:31:44;;;;;;;5.75;3.38;;;13.20;95.50;;;;;;6184193;23;20012;-94
2023/04/30 00:34:10;;;;;;;5.07;2.63;;;13.20;95.50;;;;;;6184039;23;20442;-95
2023/04/30 00:36:38;;;;;;;5.22;3.13;;;13.60;95.60;;;;;;6183968;23;20339;-93
2023/04/30 00:39:04;;;;;;;4.80;3.03;;;13.20;95.40;;;;;;6183955;23;20013;-93
2023/04/30 00:41:31;;;;;;;4.65;3.38;;;13.20;95.50;;;;;;6183705;23;20440;-94
2023/04/30 00:43:57;;;;;;;5.45;2.88;;;13.60;95.60;;;;;;6160091;23;20001;-95
2023/04/30 00:46:23;;;;;;;6.00;3.60;;;13.20;95.40;;;;;;6183503;23;20445;-93
2023/04/30 00:48:49;;;;;;;8.68;3.55;;;13.20;95.40;;;;;;6182940;23;20016;-93
2023/04/30 00:51:15;;;;;;;6.32;3.10;;;13.20;95.50;;;;;;6185133;23;20009;-93
2023/04/30 00:53:41;;;;;;;5.32;3.33;;;13.20;95.40;;;;;;6159371;23;20063;-95
2023/04/30 00:56:09;;;;;;;5.30;3.20;;;13.20;95.40;;;;;;6158954;23;20017;-94
2023/04/30 00:58:38;;;;;;;6.30;3.50;;;13.20;95.40;;;;;;6158414;23;20021;-94
2023/04/30 01:01:05;;;;;;;6.20;3.42;;;13.20;95.50;;;;;;6159280;23;20609;-95
2023/04/30 01:03:31;;;;;;;5.43;3.42;;;13.20;95.50;;;;;;6158813;23;20005;-94
2023/04/30 01:06:00;;;;;;;4.82;2.88;;;13.20;95.50;;;;;;6182989;23;20084;-95
2023/04/30 01:08:26;;;;;;;6.32;3.35;;;13.20;95.50;;;;;;6159197;23;20095;-94
2023/04/30 01:11:35;;;;;;;7.47;2.90;;;13.20;95.40;;;;;;6183126;23;20035;-93
2023/04/30 01:14:12;;;;;;;4.57;3.10;;;13.20;95.40;;;;;;6104199;23;20342;-94
2023/04/30 01:16:47;;;;;;;4.78;3.25;;;13.60;95.70;;;;;;6159089;23;20083;-94
2023/04/30 01:19:35;;;;;;;4.38;3.22;;;13.20;95.60;;;;;;6158561;23;20005;-94
2023/04/30 01:22:04;;;;;;;14.63;3.95;;;13.20;95.60;;;;;;6158660;23;20005;-93
2023/04/30 01:25:00;;;;;;;7.45;3.72;;;13.20;95.70;;;;;;6159029;23;20019;-93
2023/04/30 01:28:03;;;;;;;6.68;3.50;;;13.20;95.70;;;;;;6159106;23;20005;-94
2023/04/30 01:30:33;;;;;;;6.05;3.55;;;13.20;95.70;;;;;;6158470;23;20012;-94
2023/04/30 01:33:02;;;;;;;7.05;3.17;;;13.20;95.70;;;;;;6158977;23;20064;-93
2023/04/30 01:35:59;;;;;;;5.40;3.67;;;14.00;95.90;;;;;;6159350;23;20035;-94
2023/04/30 01:38:51;;;;;;;7.18;3.47;;;13.20;95.60;;;;;;6158029;23;20005;-94
2023/04/30 01:41:36;;;;;;;8.75;3.88;;;13.20;95.60;;;;;;6113932;23;20012;-93
2023/04/30 01:44:28;;;;;;;4.95;3.17;;;13.20;95.60;;;;;;6158930;23;20008;-95
2023/04/30 01:47:22;;;;;;;5.15;3.00;;;13.20;95.50;;;;;;6159141;23;20011;-93
2023/04/30 01:50:10;;;;;;;5.60;3.65;;;13.20;95.60;;;;;;6096848;23;20005;-94
2023/04/30 01:52:46;;;;;;;5.57;3.55;;;13.10;95.50;;;;;;6158524;23;20056;-94
2023/04/30 01:55:27;;;;;;;7.45;3.13;;;13.10;95.50;;;;;;6158663;23;20071;-94
2023/04/30 01:57:59;;;;;;;7.43;3.53;;;13.10;95.50;;;;;;6158698;23;20032;-94
2023/04/30 02:00:26;;;;;;;5.90;3.60;;;13.70;95.70;;;;;;6158710;23;20009;-95
2023/04/30 02:02:52;;;;;;;6.00;3.75;;;13.10;95.50;;;;;;6158510;23;20088;-94
2023/04/30 02:05:20;;;;;;;7.72;3.80;;;13.20;95.60;;;;;;6156804;23;20016;-94
2023/04/30 02:07:48;;;;;;;5.80;3.75;;;13.10;95.50;;;;;;6183253;23;20005;-93
2023/04/30 02:10:16;;;;;;;5.55;3.28;;;13.10;95.90;;;;;;6158649;23;20092;-94
2023/04/30 02:12:41;;;;;;;6.13;2.92;;;13.10;95.60;;;;;;6160093;23;20009;-93
2023/04/30 02:15:08;;;;;;;4.47;2.95;;;13.10;95.60;;;;;;6185820;23;20048;-91
2023/04/30 02:17:33;;;;;;;7.28;4.07;;;13.10;95.70;;;;;;6160287;23;20005;-93
2023/04/30 02:19:59;;;;;;;7.25;3.40;;;12.80;95.90;;;;;;6185261;23;20092;-94
2023/04/30 02:22:25;;;;;;;5.53;3.47;;;13.10;95.70;;;;;;6184898;23;20009;-93
2023/04/30 02:24:54;;;;;;;12.32;3.38;;;13.10;95.60;;;;;;6160761;23;20005;-93
2023/04/30 02:27:22;;;;;;;8.38;3.63;;;13.50;95.60;;;;;;6184881;23;20017;-93
2023/04/30 02:29:48;;;;;;;5.90;3.60;;;13.10;95.60;;;;;;6160147;23;20027;-92
2023/04/30 02:32:13;;;;;;;6.10;3.17;;;13.10;95.70;;;;;;6184618;23;20438;-92
2023/04/30 02:34:39;;;;;;;5.53;3.63;;;13.10;95.70;;;;;;6185044;23;20005;-94
2023/04/30 02:37:06;;;;;;;8.65;4.38;;;13.10;95.70;;;;;;6185094;23;20012;-94
2023/04/30 02:39:31;;;;;;;6.28;3.83;;;13.10;95.60;;;;;;6160336;23;20024;-93
2023/04/30 02:41:57;;;;;;;6.28;3.60;;;13.10;95.60;;;;;;6184597;23;20414;-93
2023/04/30 02:44:24;;;;;;;9.38;4.50;;;13.10;95.60;;;;;;6160111;23;20005;-93
2023/04/30 02:46:49;;;;;;;8.18;3.90;;;13.10;95.60;;;;;;6160260;23;20031;-94
2023/04/30 02:49:18;;;;;;;8.98;4.57;;;13.10;95.60;;;;;;6185547;23;20001;-93
2023/04/30 02:51:44;;;;;;;6.82;4.28;;;13.10;95.50;;;;;;6159618;23;20012;-93
2023/04/30 02:54:09;;;;;;;11.43;5.07;;;13.10;95.50;;;;;;6183733;23;20005;-92
2023/04/30 02:56:35;;;;;;;8.77;4.57;;;13.10;95.50;;;;;;6184695;23;20001;-94
2023/04/30 02:59:01;;;;;;;9.55;4.55;;;13.20;95.50;;;;;;6185149;23;20011;-94
2023/04/30 03:01:27;;;;;;;7.53;4.50;;;13.10;95.50;;;;;;6184398;23;20107;-92
2023/04/30 03:03:52;;;;;;;13.07;4.40;;;13.10;95.50;;;;;;6185005;23;20002;-94
2023/04/30 03:06:18;;;;;;;11.82;4.55;;;13.10;95.60;;;;;;6185850;23;20001;-93
2023/04/30 03:08:44;;;;;;;9.80;4.88;;;13.10;95.60;;;;;;6185152;23;20304;-94
2023/04/30 03:11:12;;;;;;;8.23;5.05;;;13.10;95.60;;;;;;6184138;23;20009;-92
2023/04/30 03:13:38;;;;;;;6.70;4.63;;;13.10;95.60;;;;;;6185431;23;20011;-93
2023/04/30 03:16:04;;;;;;;8.45;5.32;;;13.00;95.60;;;;;;6184492;23;20032;-93
2023/04/30 03:18:33;;;;;;;9.02;5.25;;;13.00;95.50;;;;;;6184912;23;20072;-95
2023/04/30 03:20:59;;;;;;;7.97;4.60;;;13.00;95.60;;;;;;6185553;23;20072;-93
2023/04/30 03:23:27;;;;;;;10.43;5.38;;;13.00;95.50;;;;;;6184608;23;20028;-94
2023/04/30 03:25:53;;;;;;;10.82;5.55;;;13.00;95.50;;;;;;6160058;23;20005;-93
2023/04/30 03:28:18;;;;;;;12.20;4.95;;;13.00;95.60;;;;;;6184666;23;20092;-93
2023/04/30 03:30:44;;;;;;;9.32;5.32;;;13.00;95.50;;;;;;6183978;23;20008;-93
2023/04/30 03:33:10;;;;;;;10.32;5.18;;;13.00;95.60;;;;;;6184259;23;20334;-92
2023/04/30 03:35:35;;;;;;;10.07;5.05;;;13.00;95.50;;;;;;6184523;23;20012;-93
2023/04/30 03:38:01;;;;;;;9.15;5.10;;;13.20;95.60;;;;;;6185224;23;20001;-94
2023/04/30 03:40:27;;;;;;;9.60;5.30;;;13.00;95.50;;;;;;6184355;23;20005;-92
2023/04/30 03:42:54;;;;;;;10.23;5.13;;;13.00;95.50;;;;;;6184634;23;20096;-92
2023/04/30 03:45:20;;;;;;;8.80;5.78;;;13.00;95.50;;;;;;6159266;23;20004;-92
2023/04/30 03:47:46;;;;;;;9.15;5.75;;;13.00;95.50;;;;;;6183794;23;20072;-94
2023/04/30 03:50:12;;;;;;;12.60;5.95;;;13.00;95.60;;;;;;6184376;23;20547;-92
2023/04/30 03:52:38;;;;;;;10.05;5.38;;;13.00;95.50;;;;;;6184157;23;20080;-94
2023/04/30 03:55:05;;;;;;;9.40;5.45;;;13.00;95.50;;;;;;6184769;23;20044;-93
2023/04/30 03:57:31;;;;;;;8.90;5.35;;;13.00;95.50;;;;;;6159532;23;20067;-93
2023/04/30 03:59:57;;;;;;;14.50;5.28;;;13.00;95.40;;;;;;6159424;23;20004;-91
2023/04/30 04:02:24;;;;;;;8.30;4.97;;;13.20;95.50;;;;;;6159128;23;20012;-93
2023/04/30 04:04:50;;;;;;;9.18;5.78;;;12.90;95.40;;;;;;6159315;23;20001;-93
2023/04/30 04:07:16;;;;;;;11.88;5.75;;;13.00;95.40;;;;;;6159032;23;20086;-94
2023/04/30 04:09:42;;;;;;;10.05;5.50;;;13.00;95.40;;;;;;6184817;23;20008;-94
2023/04/30 04:12:08;;;;;;;14.40;5.82;;;13.00;95.50;;;;;;6184507;23;20497;-93
2023/04/30 04:14:33;;;;;;;11.18;5.93;;;13.00;95.40;;;;;;6159463;23;20024;-94
2023/04/30 04:17:00;;;;;;;11.25;5.85;;;13.30;95.50;;;;;;6183813;23;20009;-94
2023/04/30 04:19:26;;;;;;;12.98;5.82;;;12.90;95.30;;;;;;6159746;23;20033;-94
2023/04/30 04:21:52;;;;;;;17.48;6.45;;;12.90;95.30;;;;;;6158773;23;19998;-93
2023/04/30 04:24:18;;;;;;;9.02;5.38;;;12.90;95.40;;;;;;6183936;23;20092;-92
2023/04/30 04:26:44;;;;;;;13.95;6.15;;;12.90;95.40;;;;;;6158028;23;20028;-93
2023/04/30 04:29:11;;;;;;;9.85;5.68;;;12.90;95.40;;;;;;6183442;23;20013;-95
2023/04/30 04:31:37;;;;;;;13.70;6.95;;;12.90;95.40;;;;;;6183199;23;20513;-93
2023/04/30 04:34:04;;;;;;;11.07;6.07;;;12.90;95.40;;;;;;6183847;23;20009;-95
2023/04/30 04:36:30;;;;;;;13.20;6.80;;;12.90;95.40;;;;;;6158863;23;20012;-94
2023/04/30 04:39:03;;;;;;;8.52;5.60;;;12.90;95.40;;;;;;6184038;23;20009;-91
2023/04/30 04:41:32;;;;;;;10.38;5.97;;;12.90;95.30;;;;;;6158496;23;20001;-94
2023/04/30 04:44:02;;;;;;;10.88;6.35;;;12.90;95.40;;;;;;6159331;23;20007;-93
2023/04/30 04:46:28;;;;;;;9.63;6.03;;;12.90;95.30;;;;;;6183936;23;20005;-93
2023/04/30 04:48:54;;;;;;;13.63;6.57;;;12.90;95.30;;;;;;6159623;23;20005;-94
2023/04/30 04:51:20;;;;;;;11.73;6.43;;;12.90;95.30;;;;;;6183339;23;20015;-94
2023/04/30 04:53:46;;;;;;;13.52;6.18;;;12.90;95.30;;;;;;6183587;23;20062;-93
2023/04/30 04:56:12;;;;;;;10.32;6.05;;;12.90;95.30;;;;;;6183935;23;20079;-93
2023/04/30 04:58:38;;;;;;;11.68;6.60;;;12.90;95.30;;;;;;6183644;23;20381;-94
2023/04/30 05:01:04;;;;;;;11.82;6.28;;;12.90;95.30;;;;;;6184105;23;20008;-95
2023/04/30 05:03:31;;;;;;;12.02;6.38;;;12.90;95.30;;;;;;6183749;23;20009;-94
2023/04/30 05:05:57;;;;;;;12.27;6.40;;;12.90;95.30;;;;;;6157856;23;20001;-92
2023/04/30 05:08:22;;;;;;;14.45;6.97;;;12.90;95.40;;;;;;6158418;23;20005;-93
2023/04/30 05:10:48;;;;;;;9.80;5.75;;;12.90;95.30;;;;;;6183760;23;20040;-92
2023/04/30 05:13:14;;;;;;;12.38;6.30;;;12.90;95.40;;;;;;6183480;23;20362;-93
2023/04/30 05:15:40;;;;;;;11.05;5.93;;;12.90;95.30;;;;;;6183742;23;20087;-94
2023/04/30 05:18:05;;;;;;;11.95;6.68;;;12.90;95.30;;;;;;6183395;23;20075;-94
2023/04/30 05:20:31;;;;;;;14.80;6.72;;;12.90;95.30;;;;;;6183264;23;20002;-93
2023/04/30 05:22:57;;;;;;;13.18;6.57;;;13.30;95.40;;;;;;6183624;23;19997;-93
2023/04/30 05:25:22;;;;;;;11.57;6.53;;;12.90;95.30;;;;;;6183288;23;20008;-95
2023/04/30 05:27:48;;;;;;;11.13;6.53;;;12.90;95.30;;;;;;6183784;23;20005;-92
2023/04/30 05:30:14;;;;;;;12.98;6.68;;;12.90;95.30;;;;;;6183780;23;20009;-94
2023/04/30 05:32:40;;;;;;;9.98;6.05;;;12.90;95.30;;;;;;6183546;23;20060;-93
2023/04/30 05:35:07;;;;;;;10.35;6.03;;;12.90;95.30;;;;;;6159549;23;20083;-93
2023/04/30 05:37:32;;;;;;;16.23;6.63;;;12.90;95.30;;;;;;6158523;23;20005;-92
2023/04/30 05:40:00;;;;;;;14.32;6.60;;;12.90;95.30;;;;;;6183335;23;20005;-94
2023/04/30 05:42:26;;;;;;;10.65;5.85;;;12.90;95.30;;;;;;6183102;23;20051;-94
2023/04/30 05:44:53;;;;;;;13.60;7.10;;;12.90;95.30;;;;;;6183205;23;20009;-93
2023/04/30 05:47:18;;;;;;;12.00;6.63;;;12.90;95.30;;;;;;6158543;23;20005;-94
2023/04/30 05:49:44;;;;;;;11.27;7.05;;;12.90;95.30;;;;;;6183439;23;20007;-92
2023/04/30 05:52:10;;;;;;;11.63;7.00;;;12.90;95.30;;;;;;6183479;23;20009;-93
2023/04/30 05:54:36;;;;;;;14.60;6.68;;;12.90;95.30;;;;;;6183285;23;20438;-92
2023/04/30 05:57:02;;;;;;;12.80;6.85;;;12.90;95.20;;;;;;6183668;23;20013;-94
2023/04/30 05:59:34;;;;;;;11.90;6.88;;;12.90;95.60;;;;;;6183521;23;20001;-96
2023/04/30 06:02:00;;;;;;;10.15;6.28;;;13.00;95.30;;;;;;6184463;23;20001;-92
2023/04/30 06:04:29;;;;;;;14.02;7.28;;;12.90;95.20;;;;;;6183371;23;20139;-92
2023/04/30 06:06:54;;;;;;;11.75;6.80;;;12.90;95.20;;;;;;6183309;23;20427;-92
2023/04/30 06:09:20;;;;;;;11.52;5.93;;;12.90;95.20;;;;;;6183092;23;20092;-94
2023/04/30 06:11:49;;;;;;;11.65;6.45;;;12.90;95.20;;;;;;6183684;23;20032;-92
2023/04/30 06:14:16;;;;;;;10.18;6.43;;;12.90;95.10;;;;;;6183634;23;20044;-93
2023/04/30 06:16:43;;;;;;;10.45;6.05;;;12.90;95.20;;;;;;6183781;23;20015;-92
2023/04/30 06:19:09;;;;;;;14.00;6.93;;;12.90;95.10;;;;;;6157991;23;20092;-93
2023/04/30 06:21:34;;;;;;;10.38;6.25;;;12.90;95.10;;;;;;6182668;23;20173;-93
2023/04/30 06:24:02;;;;;;;10.75;6.05;;;12.90;95.10;;;;;;6182687;23;20008;-94
2023/04/30 06:26:30;;;;;;;13.48;6.97;;;12.90;95.10;;;;;;6182131;23;20001;-93
2023/04/30 06:28:56;;;;;;;11.30;7.10;;;13.30;95.20;;;;;;6158671;23;20001;-92
2023/04/30 06:31:23;;;;;;;11.73;6.65;;;12.90;95.00;;;;;;6182946;23;20035;-92
2023/04/30 06:33:49;;;;;;;9.27;5.35;;;13.00;95.10;;;;;;6158289;23;20005;-92
2023/04/30 06:36:15;;;;;;;11.90;6.75;;;13.00;95.00;;;;;;6183159;23;20012;-91
2023/04/30 06:38:41;;;;;;;12.48;7.13;;;13.00;95.00;;;;;;6183484;23;20088;-92
2023/04/30 06:41:07;;;;;;;12.48;5.93;;;13.00;95.00;;;;;;6182606;23;19997;-92
2023/04/30 06:43:33;;;;;;;14.55;6.65;;;13.00;95.00;;;;;;6158633;23;20093;-91
2023/04/30 06:45:59;;;;;;;12.00;7.78;;;13.00;95.00;;;;;;6183136;23;20005;-94
2023/04/30 06:48:25;;;;;;;11.52;7.35;;;13.00;95.00;;;;;;6182937;23;20071;-92
2023/04/30 06:50:50;;;;;;;9.85;5.90;;;13.00;94.90;;;;;;6182808;23;20335;-93
2023/04/30 06:53:16;;;;;;;12.55;7.43;;;13.00;94.90;;;;;;6183563;23;20005;-93
2023/04/30 06:55:41;;;;;;;14.50;6.82;;;13.40;95.00;;;;;;6182956;23;20132;-96
2023/04/30 06:58:07;;;;;;;12.50;6.55;;;13.00;94.90;;;;;;6183835;23;20423;-92
2023/04/30 07:00:33;;;;;;;10.63;6.82;;;13.00;94.90;;;;;;6184388;23;20008;-92
2023/04/30 07:03:01;;;;;;;10.45;6.90;;;14.10;95.20;;;;;;6159898;23;20033;-93
2023/04/30 07:05:27;;;;;;;12.52;6.43;;;13.00;94.80;;;;;;6183942;23;20001;-93
2023/04/30 07:07:53;;;;;;;13.18;7.63;;;13.00;94.80;;;;;;6160164;23;20005;-91
2023/04/30 07:10:19;;;;;;;6.68;5.47;;;13.00;94.80;;;;;;6184305;23;20012;-92
2023/04/30 07:12:45;;;;;;;11.45;7.47;;;13.00;94.80;;;;;;6185082;23;20009;-93
2023/04/30 07:15:10;;;;;;;13.85;6.88;;;13.00;94.80;;;;;;6159966;23;20028;-94
2023/04/30 07:17:37;;;;;;;11.50;7.07;;;13.10;94.80;;;;;;6185028;23;20506;-92
2023/04/30 07:20:06;;;;;;;9.80;6.45;;;13.10;94.70;;;;;;6160041;23;20013;-92
2023/04/30 07:22:35;;;;;;;13.35;7.43;;;13.10;94.70;;;;;;6160222;23;20008;-96
2023/04/30 07:25:01;;;;;;;10.70;6.32;;;13.10;94.70;;;;;;6184939;23;20012;-91
2023/04/30 07:27:27;;;;;;;11.52;6.78;;;13.10;94.70;;;;;;6184705;23;20339;-92
2023/04/30 07:29:53;;;;;;;13.63;6.85;;;13.10;94.60;;;;;;6185021;23;20008;-94
2023/04/30 07:32:19;;;;;;;9.43;6.18;;;13.10;94.60;;;;;;6159456;23;20016;-93
2023/04/30 07:34:45;;;;;;;12.80;6.32;;;13.10;94.60;;;;;;6184657;23;20587;-92
2023/04/30 07:37:10;;;;;;;9.52;6.25;;;13.10;94.60;;;;;;6159713;23;20080;-91
2023/04/30 07:39:36;;;;;;;9.73;6.18;;;13.20;94.60;;;;;;6184151;23;20430;-92
2023/04/30 07:42:04;;;;;;;16.83;6.30;;;13.20;94.50;;;;;;6184847;23;20031;-95
2023/04/30 07:44:30;;;;;;;12.20;6.72;;;13.20;94.50;;;;;;6185454;23;20008;-91
2023/04/30 07:46:56;;;;;;;8.65;6.00;;;13.20;94.50;;;;;;6159786;23;20009;-92
2023/04/30 07:49:25;;;;;;;12.60;6.32;;;13.20;94.40;;;;;;6184649;23;20068;-96
2023/04/30 07:51:51;;;;;;;11.05;6.30;;;13.30;94.40;;;;;;6184499;23;20457;-96
2023/04/30 07:54:16;;;;;;;11.77;6.45;;;13.30;94.40;;;;;;6184958;23;20412;-92
2023/04/30 07:56:42;;;;;;;8.68;5.97;;;13.30;94.30;;;;;;6184022;23;20063;-92
2023/04/30 07:59:08;;;;;;;9.60;6.40;;;13.30;94.30;;;;;;6184058;23;20033;-91
2023/04/30 08:01:33;;;;;;;13.20;6.90;;;13.40;94.30;;;;;;6184020;23;20005;-93
2023/04/30 08:04:06;;;;;;;9.18;6.38;;;13.40;94.20;;;;;;6184523;23;20330;-93
2023/04/30 08:06:32;;;;;;;10.45;7.20;;;13.40;94.20;;;;;;6160178;23;20047;-94
2023/04/30 08:08:57;;;;;;;10.05;6.25;;;14.00;94.30;;;;;;6184475;23;20009;-93
2023/04/30 08:11:23;;;;;;;9.68;6.25;;;13.50;94.10;;;;;;6185239;23;20071;-93
2023/04/30 08:13:58;;;;;;;12.50;5.95;;;13.50;94.00;;;;;;6184581;23;20005;-94
2023/04/30 08:16:23;;;;;;;12.35;7.13;;;13.50;94.00;;;;;;6135540;23;20009;-92
2023/04/30 08:18:55;;;;;;;9.20;5.35;;;13.90;94.00;;;;;;6184435;23;20031;-95
2023/04/30 08:21:21;;;;;;;11.40;6.45;;;13.60;93.70;;;;;;6184186;23;20005;-95
2023/04/30 08:23:47;;;;;;;10.20;6.40;;;13.70;93.70;;;;;;6158979;23;20005;-93
2023/04/30 08:26:13;;;;;;;10.25;6.57;;;13.70;93.60;;;;;;6184496;23;20008;-94
2023/04/30 08:28:38;;;;;;;14.98;6.45;;;13.80;93.50;;;;;;6184787;23;20013;-92
2023/04/30 08:31:04;;;;;;;8.80;5.50;;;13.80;93.40;;;;;;6183539;23;20005;-94
2023/04/30 08:33:30;;;;;;;8.80;5.35;;;14.40;93.40;;;;;;6183725;23;20009;-94
2023/04/30 08:35:56;;;;;;;9.32;5.90;;;13.90;93.10;;;;;;6184679;23;20016;-93
2023/04/30 08:38:22;;;;;;;8.30;5.65;;;14.00;93.10;;;;;;6183472;23;20009;-94
2023/04/30 08:41:13;;;;;;;8.73;5.25;;;14.00;93.00;;;;;;6183562;23;20008;-94
2023/04/30 08:43:40;;;;;;;10.35;5.93;;;14.00;93.00;;;;;;6160046;23;20088;-93
2023/04/30 08:46:06;;;;;;;12.70;6.05;;;14.00;92.90;;;;;;6159601;23;20005;-92
2023/04/30 08:48:32;;;;;;;9.75;5.80;;;13.90;92.80;;;;;;6184174;23;20012;-96
2023/04/30 08:51:02;;;;;;;6.88;5.22;;;14.10;92.80;;;;;;6158866;23;20016;-96
2023/04/30 08:53:34;;;;;;;7.30;5.22;;;14.20;92.60;;;;;;6158867;23;20005;-95
2023/04/30 08:56:03;;;;;;;10.90;5.60;;;13.80;92.40;;;;;;6160674;23;20005;-94
2023/04/30 08:58:29;;;;;;;11.45;5.45;;;14.30;92.50;;;;;;6159621;23;20017;-96
2023/04/30 09:01:07;;;;;;;7.80;4.88;;;14.20;92.40;;;;;;6158873;23;20028;-95
2023/04/30 09:03:45;;;;;;;6.70;4.95;;;14.20;92.30;;;;;;6160181;23;20010;-96
2023/04/30 09:06:15;;;;;;;7.68;5.25;;;14.20;92.30;;;;;;6160811;23;20009;-94
2023/04/30 09:08:41;;;;;;;9.00;5.38;;;14.30;92.20;;;;;;6184501;23;20005;-96
2023/04/30 09:11:24;;;;;;;9.65;4.35;;;14.30;92.10;;;;;;6158699;23;20016;-95
2023/04/30 09:13:58;;;;;;;5.88;3.95;;;14.30;92.00;;;;;;6159094;23;20005;-96
2023/04/30 09:16:25;;;;;;;7.00;4.50;;;14.40;91.90;;;;;;6159601;23;20009;-95
2023/04/30 09:18:51;;;;;;;9.50;4.60;;;14.30;91.90;;;;;;6159821;23;20044;-95
2023/04/30 09:21:34;;;;;;;7.80;4.57;;;14.40;91.90;;;;;;6184695;23;20001;-93
2023/04/30 09:24:04;;;;;;;6.80;4.32;;;14.40;91.80;;;;;;6185185;23;20423;-92
2023/04/30 09:26:35;;;;;;;6.50;4.43;;;14.40;91.80;;;;;;6185173;23;20001;-94
2023/04/30 09:29:06;;;;;;;;;;;14.40;91.80;;;;;;6134475;23;20012;-91
2023/04/30 09:31:32;;;;;;;6.47;4.05;;;14.40;91.60;;;;;;6158530;23;19900;-94
2023/04/30 09:34:01;;;;;;;6.03;4.18;;;14.40;91.60;;;;;;6158776;23;20008;-92
2023/04/30 09:36:27;;;;;;;6.68;4.30;;;14.40;91.40;;;;;;6184322;23;20005;-95
2023/04/30 09:38:53;;;;;;;7.20;4.80;;;14.40;91.40;;;;;;6159353;23;20016;-94
2023/04/30 09:41:28;;;;;;;6.53;4.15;;;14.40;91.40;;;;;;6185040;23;20004;-92
2023/04/30 09:43:57;;;;;;;10.32;4.45;;;14.40;91.40;;;;;;6187423;23;20005;-96
2023/04/30 09:46:36;;;;;;;8.68;3.88;;;14.40;91.20;;;;;;6139622;23;20006;-95
2023/04/30 09:49:04;;;;;;;13.73;4.40;;;14.40;91.20;;;;;;6160904;23;20009;-94
2023/04/30 09:51:31;;;;;;;4.93;3.33;;;14.30;91.30;;;;;;6167351;23;20028;-94
2023/04/30 09:54:19;;;;;;;6.65;3.63;;;14.30;91.00;;;;;;6188359;23;20009;-96
2023/04/30 09:57:17;;;;;;;5.53;3.83;;;14.30;90.90;;;;;;6191849;23;20008;-95
2023/04/30 09:59:45;;;;;;;7.40;4.30;;;14.30;91.20;;;;;;6166289;23;20025;-94
2023/04/30 10:02:15;;;;;;;5.13;3.55;;;14.60;91.10;;;;;;6164590;23;20087;-94
2023/04/30 10:04:54;;;;;;;;;;;14.30;90.90;;;;;;6113270;23;20034;-96
2023/04/30 10:07:22;;;;;;;5.75;3.42;;;14.30;90.70;;;;;;6167582;23;19947;-96
2023/04/30 10:09:58;;;;;;;6.93;3.67;;;14.10;90.70;;;;;;6163638;23;20005;-95
2023/04/30 10:12:30;;;;;;;6.35;3.53;;;14.30;90.70;;;;;;6161202;23;20073;-95
2023/04/30 10:18:27;;;;;;;4.70;3.13;;;14.30;90.50;;;;;;6188972;23;20044;-95
2023/04/30 10:20:55;;;;;;;5.07;3.28;;;14.90;90.80;;;;;;6097853;23;20003;-93
2023/04/30 10:23:30;;;;;;;6.90;3.38;;;14.30;90.50;;;;;;6073099;23;20006;-96
2023/04/30 10:25:57;;;;;;;9.93;4.18;;;14.20;90.40;;;;;;6072202;23;20142;-96
2023/04/30 10:28:35;;;;;;;8.40;4.10;;;14.20;90.50;;;;;;6099183;23;20021;-96
2023/04/30 10:31:02;;;;;;;5.45;3.15;;;14.20;90.60;;;;;;6050829;23;20010;-94
2023/04/30 10:33:36;;;;;;;6.75;3.90;;;14.20;90.50;;;;;;6072916;23;20443;-96
2023/04/30 10:36:12;;;;;;;4.45;3.20;;;14.20;90.40;;;;;;6074366;23;20060;-95
2023/04/30 10:38:38;;;;;;;6.97;3.40;;;14.20;90.30;;;;;;6096542;23;20034;-96
2023/04/30 10:41:06;;;;;;;6.05;3.33;;;14.20;90.40;;;;;;6073752;23;20097;-93
2023/04/30 10:43:35;;;;;;;6.88;4.15;;;14.20;90.40;;;;;;6077600;23;20026;-94
2023/04/30 10:46:05;;;;;;;6.57;4.25;;;14.20;90.70;;;;;;6075780;23;20006;-96
2023/04/30 10:48:34;;;;;;;5.00;3.53;;;14.20;90.30;;;;;;6072670;23;20049;-92
2023/04/30 10:51:00;;;;;;;5.10;3.90;;;14.10;90.40;;;;;;6071535;23;20073;-94
2023/04/30 10:53:30;;;;;;;6.20;3.80;;;14.10;90.30;;;;;;6096677;23;20347;-95
2023/04/30 10:56:07;;;;;;;5.30;3.38;;;14.10;90.50;;;;;;6100431;23;20457;-93
2023/04/30 10:58:38;;;;;;;5.15;3.50;;;14.10;90.40;;;;;;6162105;23;20079;-96
2023/04/30 11:01:07;;;;;;;6.43;3.60;;;14.10;90.30;;;;;;6139105;23;20013;-94
2023/04/30 11:03:34;;;;;;;6.40;3.53;;;14.10;90.50;;;;;;6160866;23;20001;-93
2023/04/30 11:06:09;;;;;;;8.25;4.00;;;14.10;90.40;;;;;;6162458;23;20017;-93
2023/04/30 11:08:46;;;;;;;7.05;3.70;;;14.10;90.40;;;;;;6139546;23;20016;-96
2023/04/30 11:11:19;;;;;;;5.70;3.38;;;14.10;90.30;;;;;;6137697;23;20051;-93
2023/04/30 11:14:06;;;;;;;4.53;2.90;;;14.10;90.30;;;;;;6161659;23;20009;-96
2023/04/30 11:16:35;;;;;;;5.32;3.30;;;14.10;90.10;;;;;;6159970;23;20088;-94
2023/04/30 11:19:15;;;;;;;4.53;3.42;;;14.10;90.40;;;;;;6187160;23;20009;-94
2023/04/30 11:22:07;;;;;;;5.20;3.30;;;14.10;90.60;;;;;;6186832;23;20672;-96
2023/04/30 11:24:59;;;;;;;5.28;3.08;;;14.10;90.30;;;;;;6140983;23;20013;-93
2023/04/30 11:27:29;;;;;;;9.25;4.07;;;14.10;90.40;;;;;;6099016;23;20005;-94
2023/04/30 11:29:56;;;;;;;4.93;3.38;;;14.10;90.50;;;;;;6161054;23;20032;-93
2023/04/30 11:32:26;;;;;;;7.03;4.20;;;14.10;90.40;;;;;;6137010;23;20088;-93
2023/04/30 11:34:53;;;;;;;5.18;3.42;;;14.10;90.50;;;;;;6135646;23;20005;-95
2023/04/30 11:37:31;;;;;;;5.68;3.13;;;14.10;90.40;;;;;;6161733;23;20044;-94
2023/04/30 11:40:13;;;;;;;5.43;3.10;;;14.10;90.40;;;;;;6161299;23;20084;-96
2023/04/30 11:42:43;;;;;;;7.57;3.25;;;14.10;90.40;;;;;;6155777;23;20402;-95
2023/04/30 11:45:11;;;;;;;5.22;3.30;;;14.10;90.40;;;;;;6164799;23;20009;-96
2023/04/30 11:47:47;;;;;;;4.95;2.95;;;14.10;90.40;;;;;;6187337;23;20418;-96
2023/04/30 11:50:27;;;;;;;3.90;3.00;;;14.10;90.30;;;;;;6160786;23;20013;-95
2023/04/30 11:52:57;;;;;;;3.10;2.75;;;14.10;90.20;;;;;;6161696;23;20009;-95
2023/04/30 11:55:27;;;;;;;4.72;2.85;;;14.10;90.20;;;;;;6161909;23;20065;-95
2023/04/30 11:57:55;;;;;;;5.53;2.92;;;14.20;90.10;;;;;;6137265;23;20009;-94
2023/04/30 12:00:40;;;;;;;5.43;3.47;;;14.20;90.10;;;;;;6161034;23;20031;-94
2023/04/30 12:03:06;;;;;;;3.70;2.80;;;14.10;90.10;;;;;;6133788;23;20009;-94
2023/04/30 12:05:34;;;;;;;5.15;2.80;;;14.20;90.00;;;;;;6184447;23;20063;-93
2023/04/30 12:08:03;;;;;;;5.35;2.28;;;14.20;89.70;;;;;;6137634;23;20013;-94
2023/04/30 12:10:30;;;;;;;3.28;2.35;;;14.10;89.50;;;;;;6185721;23;20025;-92
2023/04/30 12:12:56;;;;;;;2.90;2.13;;;14.20;89.60;;;;;;6161952;23;20008;-93
2023/04/30 12:15:26;;;;;;;3.60;2.70;;;14.20;90.20;;;;;;6186330;23;20005;-93
2023/04/30 12:17:53;;;;;;;4.10;2.63;;;14.20;89.70;;;;;;6158891;23;20084;-94
2023/04/30 12:20:23;;;;;;;3.70;2.30;;;14.20;89.70;;;;;;6161583;23;20087;-96
2023/04/30 12:22:49;;;;;;;3.57;2.30;;;14.20;89.70;;;;;;6163567;23;20419;-95
2023/04/30 12:25:18;;;;;;;4.13;2.67;;;14.30;89.60;;;;;;6190834;23;20232;-94
2023/04/30 12:27:52;;;;;;;3.90;2.90;;;14.20;88.70;;;;;;6160473;23;20088;-96
2023/04/30 12:30:23;;;;;;;4.93;2.90;;;15.40;89.70;;;;;;6159692;23;20008;-93
2023/04/30 12:32:52;;;;;;;14.63;3.03;;;14.20;89.10;;;;;;6161565;23;20009;-91
2023/04/30 12:35:30;;;;;;;5.45;3.20;;;14.20;89.10;;;;;;6188704;23;19997;-93
2023/04/30 12:38:07;;;;;;;5.47;3.00;;;14.20;88.90;;;;;;6160155;23;20009;-93
2023/04/30 12:40:33;;;;;;;6.13;3.13;;;14.20;89.00;;;;;;6162223;23;20001;-96
2023/04/30 12:43:17;;;;;;;5.20;3.45;;;14.20;89.10;;;;;;6162990;23;20021;-95
2023/04/30 12:45:56;;;;;;;7.50;3.05;;;14.20;89.00;;;;;;6164382;23;20009;-96
2023/04/30 12:48:42;;;;;;;7.60;3.42;;;14.20;89.20;;;;;;6163587;23;20428;-95
2023/04/30 12:51:11;;;;;;;7.82;3.78;;;14.20;89.10;;;;;;6142508;23;20035;-95
2023/04/30 12:53:50;;;;;;;5.32;3.25;;;14.20;88.70;;;;;;6138134;23;20016;-94
2023/04/30 12:56:25;;;;;;;6.97;3.10;;;14.20;88.90;;;;;;6158951;23;20017;-95